sensor_id;sensor_type;location;lat;lon;timestamp;P1;durP1;ratioP1;P2;durP2;ratioP2
15526;SDS011;7865;50.918;4.510;2024-03-08T01:00:59;33.33;;;19.97;;
15526;SDS011;7865;50.918;4.510;2024-03-08T01:06:01;33.53;;;19.27;;
15526;SDS011;7865;50.918;4.510;2024-03-08T01:11:03;33.93;;;19.37;;
15526;SDS011;7865;50.918;4.510;2024-03-08T01:16:05;36.40;;;19.73;;
15526;SDS011;7865;50.918;4.510;2024-03-08T01:21:06;36.00;;;20.73;;
15526;SDS011;7865;50.918;4.510;2024-03-08T01:26:08;34.07;;;19.43;;
15526;SDS011;7865;50.918;4.510;2024-03-08T01:31:09;40.80;;;20.20;;
15526;SDS011;7865;50.918;4.510;2024-03-08T01:36:11;37.53;;;20.80;;
15526;SDS011;7865;50.918;4.510;2024-03-08T01:41:16;31.93;;;19.17;;
15526;SDS011;7865;50.918;4.510;2024-03-08T01:46:19;33.60;;;20.50;;
15526;SDS011;7865;50.918;4.510;2024-03-08T01:51:22;29.40;;;18.33;;
15526;SDS011;7865;50.918;4.510;2024-03-08T01:56:24;32.17;;;19.77;;
15526;SDS011;7865;50.918;4.510;2024-03-08T02:01:26;33.67;;;21.33;;
15526;SDS011;7865;50.918;4.510;2024-03-08T02:06:28;33.87;;;22.20;;
15526;SDS011;7865;50.918;4.510;2024-03-08T02:11:30;34.40;;;22.13;;
15526;SDS011;7865;50.918;4.510;2024-03-08T02:16:32;35.00;;;19.73;;
15526;SDS011;7865;50.918;4.510;2024-03-08T02:21:34;36.63;;;22.90;;
15526;SDS011;7865;50.918;4.510;2024-03-08T02:26:35;31.33;;;21.57;;
15526;SDS011;7865;50.918;4.510;2024-03-08T02:31:36;33.27;;;21.00;;
15526;SDS011;7865;50.918;4.510;2024-03-08T02:36:37;38.27;;;22.43;;
15526;SDS011;7865;50.918;4.510;2024-03-08T02:41:38;38.33;;;23.87;;
15526;SDS011;7865;50.918;4.510;2024-03-08T02:46:40;35.13;;;22.90;;
15526;SDS011;7865;50.918;4.510;2024-03-08T02:51:41;32.00;;;22.57;;
15526;SDS011;7865;50.918;4.510;2024-03-08T02:56:42;33.20;;;22.20;;
15526;SDS011;7865;50.918;4.510;2024-03-08T03:01:44;33.13;;;21.83;;
15526;SDS011;7865;50.918;4.510;2024-03-08T03:06:45;36.77;;;23.33;;
15526;SDS011;7865;50.918;4.510;2024-03-08T03:11:46;36.10;;;23.17;;
15526;SDS011;7865;50.918;4.510;2024-03-08T03:16:48;32.47;;;23.07;;
15526;SDS011;7865;50.918;4.510;2024-03-08T03:21:49;30.90;;;22.30;;
15526;SDS011;7865;50.918;4.510;2024-03-08T03:26:50;36.50;;;24.13;;
15526;SDS011;7865;50.918;4.510;2024-03-08T03:31:53;38.97;;;24.57;;
15526;SDS011;7865;50.918;4.510;2024-03-08T03:36:54;34.90;;;21.73;;
15526;SDS011;7865;50.918;4.510;2024-03-08T03:41:56;34.63;;;23.50;;
15526;SDS011;7865;50.918;4.510;2024-03-08T03:46:57;35.50;;;24.30;;
15526;SDS011;7865;50.918;4.510;2024-03-08T03:51:58;39.60;;;24.30;;
15526;SDS011;7865;50.918;4.510;2024-03-08T03:56:59;35.83;;;25.07;;
15526;SDS011;7865;50.918;4.510;2024-03-08T04:02:01;37.53;;;24.93;;
15526;SDS011;7865;50.918;4.510;2024-03-08T04:07:04;38.40;;;24.90;;
15526;SDS011;7865;50.918;4.510;2024-03-08T04:12:05;35.83;;;21.73;;
15526;SDS011;7865;50.918;4.510;2024-03-08T04:17:07;35.50;;;24.73;;
15526;SDS011;7865;50.918;4.510;2024-03-08T04:22:09;36.30;;;23.97;;
15526;SDS011;7865;50.918;4.510;2024-03-08T04:27:11;39.47;;;25.13;;
15526;SDS011;7865;50.918;4.510;2024-03-08T04:32:12;35.40;;;22.77;;
15526;SDS011;7865;50.918;4.510;2024-03-08T04:37:14;37.10;;;23.10;;
15526;SDS011;7865;50.918;4.510;2024-03-08T04:42:15;36.27;;;24.10;;
15526;SDS011;7865;50.918;4.510;2024-03-08T04:47:18;35.43;;;22.87;;
15526;SDS011;7865;50.918;4.510;2024-03-08T04:52:20;37.27;;;24.03;;
15526;SDS011;7865;50.918;4.510;2024-03-08T04:57:22;38.57;;;25.83;;
15526;SDS011;7865;50.918;4.510;2024-03-08T05:02:24;35.63;;;25.40;;
15526;SDS011;7865;50.918;4.510;2024-03-08T05:07:25;37.70;;;22.87;;
15526;SDS011;7865;50.918;4.510;2024-03-08T05:12:26;36.47;;;23.83;;
15526;SDS011;7865;50.918;4.510;2024-03-08T05:17:27;40.53;;;25.07;;
15526;SDS011;7865;50.918;4.510;2024-03-08T05:22:29;40.20;;;23.80;;
15526;SDS011;7865;50.918;4.510;2024-03-08T05:27:30;34.63;;;21.97;;
15526;SDS011;7865;50.918;4.510;2024-03-08T05:32:31;34.93;;;21.10;;
15526;SDS011;7865;50.918;4.510;2024-03-08T05:37:33;38.00;;;22.33;;
15526;SDS011;7865;50.918;4.510;2024-03-08T05:42:35;38.40;;;25.03;;
15526;SDS011;7865;50.918;4.510;2024-03-08T05:47:38;33.97;;;23.53;;
15526;SDS011;7865;50.918;4.510;2024-03-08T05:52:40;39.43;;;24.80;;
15526;SDS011;7865;50.918;4.510;2024-03-08T05:57:41;36.83;;;23.70;;
15526;SDS011;7865;50.918;4.510;2024-03-08T06:02:43;40.17;;;23.57;;
15526;SDS011;7865;50.918;4.510;2024-03-08T06:07:44;41.53;;;25.10;;
15526;SDS011;7865;50.918;4.510;2024-03-08T06:12:45;37.40;;;24.73;;
15526;SDS011;7865;50.918;4.510;2024-03-08T06:17:46;39.50;;;24.27;;
15526;SDS011;7865;50.918;4.510;2024-03-08T06:22:48;40.00;;;23.87;;
15526;SDS011;7865;50.918;4.510;2024-03-08T06:27:50;40.57;;;23.27;;
15526;SDS011;7865;50.918;4.510;2024-03-08T06:32:52;40.27;;;24.93;;
15526;SDS011;7865;50.918;4.510;2024-03-08T06:37:53;38.27;;;23.97;;
15526;SDS011;7865;50.918;4.510;2024-03-08T06:42:54;37.23;;;25.63;;
15526;SDS011;7865;50.918;4.510;2024-03-08T06:47:56;42.67;;;24.07;;
15526;SDS011;7865;50.918;4.510;2024-03-08T06:52:57;38.87;;;22.00;;
15526;SDS011;7865;50.918;4.510;2024-03-08T06:58:00;37.27;;;23.23;;
15526;SDS011;7865;50.918;4.510;2024-03-08T07:03:02;35.23;;;23.80;;
15526;SDS011;7865;50.918;4.510;2024-03-08T07:08:04;38.83;;;23.43;;
15526;SDS011;7865;50.918;4.510;2024-03-08T07:13:06;35.37;;;21.97;;
15526;SDS011;7865;50.918;4.510;2024-03-08T07:18:07;35.03;;;24.53;;
15526;SDS011;7865;50.918;4.510;2024-03-08T07:23:09;33.97;;;22.63;;
15526;SDS011;7865;50.918;4.510;2024-03-08T07:28:11;33.67;;;21.07;;
15526;SDS011;7865;50.918;4.510;2024-03-08T07:33:14;32.00;;;21.37;;
15526;SDS011;7865;50.918;4.510;2024-03-08T07:38:16;33.97;;;21.90;;
15526;SDS011;7865;50.918;4.510;2024-03-08T07:43:17;28.73;;;19.17;;
15526;SDS011;7865;50.918;4.510;2024-03-08T07:48:18;30.87;;;21.13;;
15526;SDS011;7865;50.918;4.510;2024-03-08T07:53:20;34.33;;;21.93;;
15526;SDS011;7865;50.918;4.510;2024-03-08T07:58:21;33.17;;;20.67;;
15526;SDS011;7865;50.918;4.510;2024-03-08T08:03:24;30.57;;;21.23;;
15526;SDS011;7865;50.918;4.510;2024-03-08T08:08:26;31.50;;;20.00;;
15526;SDS011;7865;50.918;4.510;2024-03-08T08:13:27;29.47;;;20.57;;
15526;SDS011;7865;50.918;4.510;2024-03-08T08:18:33;29.60;;;19.87;;
15526;SDS011;7865;50.918;4.510;2024-03-08T08:23:34;30.23;;;21.20;;
15526;SDS011;7865;50.918;4.510;2024-03-08T08:28:35;25.07;;;17.80;;
15526;SDS011;7865;50.918;4.510;2024-03-08T08:33:36;24.07;;;17.97;;
15526;SDS011;7865;50.918;4.510;2024-03-08T08:38:37;29.47;;;18.90;;
15526;SDS011;7865;50.918;4.510;2024-03-08T08:43:39;24.30;;;18.37;;
15526;SDS011;7865;50.918;4.510;2024-03-08T08:48:50;27.00;;;18.70;;
15526;SDS011;7865;50.918;4.510;2024-03-08T08:53:51;26.50;;;17.10;;
15526;SDS011;7865;50.918;4.510;2024-03-08T08:58:52;25.60;;;18.20;;
15526;SDS011;7865;50.918;4.510;2024-03-08T09:03:58;26.43;;;18.10;;
15526;SDS011;7865;50.918;4.510;2024-03-08T09:08:59;23.43;;;17.70;;
15526;SDS011;7865;50.918;4.510;2024-03-08T09:14:05;22.90;;;17.43;;
15526;SDS011;7865;50.918;4.510;2024-03-08T09:19:06;25.30;;;17.27;;
15526;SDS011;7865;50.918;4.510;2024-03-08T09:24:08;24.17;;;17.43;;
15526;SDS011;7865;50.918;4.510;2024-03-08T09:29:09;23.23;;;17.33;;
15526;SDS011;7865;50.918;4.510;2024-03-08T09:34:11;20.27;;;15.37;;
15526;SDS011;7865;50.918;4.510;2024-03-08T09:39:20;20.63;;;15.90;;
15526;SDS011;7865;50.918;4.510;2024-03-08T09:44:22;22.23;;;15.37;;
15526;SDS011;7865;50.918;4.510;2024-03-08T09:49:26;22.10;;;16.70;;
15526;SDS011;7865;50.918;4.510;2024-03-08T09:54:28;22.37;;;16.97;;
15526;SDS011;7865;50.918;4.510;2024-03-08T09:59:30;21.40;;;15.53;;
15526;SDS011;7865;50.918;4.510;2024-03-08T10:04:38;19.60;;;14.83;;
15526;SDS011;7865;50.918;4.510;2024-03-08T10:09:43;18.20;;;14.70;;
15526;SDS011;7865;50.918;4.510;2024-03-08T10:14:51;18.70;;;15.17;;
15526;SDS011;7865;50.918;4.510;2024-03-08T10:19:56;20.27;;;15.40;;
15526;SDS011;7865;50.918;4.510;2024-03-08T10:25:00;18.20;;;15.93;;
15526;SDS011;7865;50.918;4.510;2024-03-08T10:30:01;18.20;;;14.47;;
15526;SDS011;7865;50.918;4.510;2024-03-08T10:35:04;18.53;;;14.97;;
15526;SDS011;7865;50.918;4.510;2024-03-08T10:40:07;19.53;;;15.87;;
15526;SDS011;7865;50.918;4.510;2024-03-08T10:45:19;17.90;;;14.87;;
15526;SDS011;7865;50.918;4.510;2024-03-08T10:50:39;21.63;;;14.63;;
15526;SDS011;7865;50.918;4.510;2024-03-08T10:55:40;20.67;;;14.50;;
15526;SDS011;7865;50.918;4.510;2024-03-08T11:00:44;19.90;;;15.75;;
15526;SDS011;7865;50.918;4.510;2024-03-08T11:05:45;19.88;;;15.02;;
15526;SDS011;7865;50.918;4.510;2024-03-08T11:10:53;20.77;;;15.13;;
15526;SDS011;7865;50.918;4.510;2024-03-08T11:15:56;19.80;;;15.07;;
15526;SDS011;7865;50.918;4.510;2024-03-08T11:20:58;17.30;;;14.32;;
15526;SDS011;7865;50.918;4.510;2024-03-08T11:25:59;18.27;;;14.45;;
15526;SDS011;7865;50.918;4.510;2024-03-08T11:36:08;18.48;;;14.60;;
15526;SDS011;7865;50.918;4.510;2024-03-08T11:41:20;19.92;;;14.18;;
15526;SDS011;7865;50.918;4.510;2024-03-08T11:46:25;19.33;;;14.20;;
15526;SDS011;7865;50.918;4.510;2024-03-08T11:51:28;17.40;;;13.23;;
15526;SDS011;7865;50.918;4.510;2024-03-08T11:56:31;17.13;;;14.70;;
15526;SDS011;7865;50.918;4.510;2024-03-08T12:01:32;16.48;;;13.73;;
15526;SDS011;7865;50.918;4.510;2024-03-08T12:06:36;19.85;;;13.88;;
15526;SDS011;7865;50.918;4.510;2024-03-08T12:11:41;20.13;;;14.75;;
15526;SDS011;7865;50.918;4.510;2024-03-08T12:16:43;17.83;;;14.45;;
15526;SDS011;7865;50.918;4.510;2024-03-08T12:21:45;17.45;;;13.93;;
15526;SDS011;7865;50.918;4.510;2024-03-08T12:26:49;18.60;;;14.00;;
15526;SDS011;7865;50.918;4.510;2024-03-08T12:31:51;16.00;;;14.13;;
15526;SDS011;7865;50.918;4.510;2024-03-08T12:36:56;19.63;;;14.13;;
15526;SDS011;7865;50.918;4.510;2024-03-08T12:41:57;20.33;;;14.02;;
15526;SDS011;7865;50.918;4.510;2024-03-08T12:46:59;18.63;;;13.73;;
15526;SDS011;7865;50.918;4.510;2024-03-08T12:52:01;18.50;;;13.70;;
15526;SDS011;7865;50.918;4.510;2024-03-08T12:57:02;16.77;;;13.40;;
15526;SDS011;7865;50.918;4.510;2024-03-08T13:02:06;18.42;;;14.48;;
15526;SDS011;7865;50.918;4.510;2024-03-08T13:07:12;19.30;;;14.45;;
15526;SDS011;7865;50.918;4.510;2024-03-08T13:12:17;18.08;;;13.63;;
15526;SDS011;7865;50.918;4.510;2024-03-08T13:17:18;18.38;;;13.75;;
15526;SDS011;7865;50.918;4.510;2024-03-08T13:22:20;18.90;;;13.73;;
15526;SDS011;7865;50.918;4.510;2024-03-08T13:27:23;17.02;;;14.02;;
15526;SDS011;7865;50.918;4.510;2024-03-08T13:32:26;19.00;;;14.38;;
15526;SDS011;7865;50.918;4.510;2024-03-08T13:37:27;17.73;;;14.60;;
15526;SDS011;7865;50.918;4.510;2024-03-08T13:42:30;19.48;;;13.30;;
15526;SDS011;7865;50.918;4.510;2024-03-08T13:47:31;20.50;;;13.85;;
15526;SDS011;7865;50.918;4.510;2024-03-08T13:52:33;19.73;;;14.32;;
15526;SDS011;7865;50.918;4.510;2024-03-08T13:57:35;18.98;;;13.60;;
15526;SDS011;7865;50.918;4.510;2024-03-08T14:02:37;17.45;;;13.15;;
15526;SDS011;7865;50.918;4.510;2024-03-08T14:07:38;19.35;;;13.82;;
15526;SDS011;7865;50.918;4.510;2024-03-08T14:12:39;19.15;;;13.55;;
15526;SDS011;7865;50.918;4.510;2024-03-08T14:17:40;19.67;;;14.15;;
15526;SDS011;7865;50.918;4.510;2024-03-08T14:22:42;17.77;;;13.18;;
15526;SDS011;7865;50.918;4.510;2024-03-08T14:27:44;19.98;;;13.20;;
15526;SDS011;7865;50.918;4.510;2024-03-08T14:32:45;18.63;;;13.40;;
15526;SDS011;7865;50.918;4.510;2024-03-08T14:37:47;16.38;;;13.02;;
15526;SDS011;7865;50.918;4.510;2024-03-08T14:42:50;17.45;;;13.38;;
15526;SDS011;7865;50.918;4.510;2024-03-08T14:47:52;19.80;;;14.40;;
15526;SDS011;7865;50.918;4.510;2024-03-08T14:52:53;17.73;;;13.52;;
15526;SDS011;7865;50.918;4.510;2024-03-08T14:57:54;16.98;;;12.73;;
15526;SDS011;7865;50.918;4.510;2024-03-08T15:02:56;18.55;;;13.50;;
15526;SDS011;7865;50.918;4.510;2024-03-08T15:08:00;16.23;;;12.18;;
15526;SDS011;7865;50.918;4.510;2024-03-08T15:13:03;17.10;;;13.35;;
15526;SDS011;7865;50.918;4.510;2024-03-08T15:18:15;18.35;;;12.95;;
15526;SDS011;7865;50.918;4.510;2024-03-08T15:23:16;17.05;;;12.38;;
15526;SDS011;7865;50.918;4.510;2024-03-08T15:28:17;19.73;;;13.63;;
15526;SDS011;7865;50.918;4.510;2024-03-08T15:33:21;16.58;;;12.88;;
15526;SDS011;7865;50.918;4.510;2024-03-08T15:38:27;15.25;;;13.02;;
15526;SDS011;7865;50.918;4.510;2024-03-08T15:43:29;19.98;;;13.57;;
15526;SDS011;7865;50.918;4.510;2024-03-08T15:48:33;17.58;;;12.35;;
15526;SDS011;7865;50.918;4.510;2024-03-08T15:53:38;22.40;;;13.88;;
15526;SDS011;7865;50.918;4.510;2024-03-08T15:58:39;19.90;;;13.30;;
15526;SDS011;7865;50.918;4.510;2024-03-08T16:03:41;16.47;;;12.63;;
15526;SDS011;7865;50.918;4.510;2024-03-08T16:08:43;17.03;;;12.27;;
15526;SDS011;7865;50.918;4.510;2024-03-08T16:13:44;18.20;;;13.63;;
15526;SDS011;7865;50.918;4.510;2024-03-08T16:18:45;17.57;;;12.00;;
15526;SDS011;7865;50.918;4.510;2024-03-08T16:23:47;16.40;;;12.20;;
15526;SDS011;7865;50.918;4.510;2024-03-08T16:28:49;18.57;;;12.23;;
15526;SDS011;7865;50.918;4.510;2024-03-08T16:33:50;20.57;;;12.03;;
15526;SDS011;7865;50.918;4.510;2024-03-08T16:38:51;18.93;;;13.17;;
15526;SDS011;7865;50.918;4.510;2024-03-08T16:43:52;17.07;;;11.40;;
15526;SDS011;7865;50.918;4.510;2024-03-08T16:48:54;17.77;;;11.67;;
15526;SDS011;7865;50.918;4.510;2024-03-08T16:53:55;18.53;;;12.20;;
15526;SDS011;7865;50.918;4.510;2024-03-08T16:58:56;16.00;;;12.07;;
15526;SDS011;7865;50.918;4.510;2024-03-08T17:03:57;17.63;;;12.80;;
15526;SDS011;7865;50.918;4.510;2024-03-08T17:09:02;18.97;;;13.23;;
15526;SDS011;7865;50.918;4.510;2024-03-08T17:14:03;17.53;;;11.83;;
15526;SDS011;7865;50.918;4.510;2024-03-08T17:19:05;16.13;;;11.20;;
15526;SDS011;7865;50.918;4.510;2024-03-08T17:24:07;18.50;;;11.77;;
15526;SDS011;7865;50.918;4.510;2024-03-08T17:29:12;16.40;;;11.17;;
15526;SDS011;7865;50.918;4.510;2024-03-08T17:34:15;17.27;;;11.60;;
15526;SDS011;7865;50.918;4.510;2024-03-08T17:39:19;15.93;;;11.00;;
15526;SDS011;7865;50.918;4.510;2024-03-08T17:44:20;17.60;;;12.10;;
15526;SDS011;7865;50.918;4.510;2024-03-08T17:49:27;17.00;;;11.87;;
15526;SDS011;7865;50.918;4.510;2024-03-08T17:54:28;19.63;;;12.83;;
15526;SDS011;7865;50.918;4.510;2024-03-08T17:59:29;18.40;;;11.40;;
15526;SDS011;7865;50.918;4.510;2024-03-08T18:04:30;18.63;;;11.03;;
15526;SDS011;7865;50.918;4.510;2024-03-08T18:09:32;18.40;;;11.87;;
15526;SDS011;7865;50.918;4.510;2024-03-08T18:14:33;17.67;;;11.97;;
15526;SDS011;7865;50.918;4.510;2024-03-08T18:19:35;17.67;;;12.70;;
15526;SDS011;7865;50.918;4.510;2024-03-08T18:24:37;17.70;;;12.47;;
15526;SDS011;7865;50.918;4.510;2024-03-08T18:29:38;15.57;;;11.17;;
15526;SDS011;7865;50.918;4.510;2024-03-08T18:34:40;18.07;;;12.43;;
15526;SDS011;7865;50.918;4.510;2024-03-08T18:39:44;17.07;;;12.03;;
15526;SDS011;7865;50.918;4.510;2024-03-08T18:44:45;19.80;;;12.63;;
15526;SDS011;7865;50.918;4.510;2024-03-08T18:49:46;21.33;;;13.20;;
15526;SDS011;7865;50.918;4.510;2024-03-08T18:54:48;18.97;;;12.33;;
15526;SDS011;7865;50.918;4.510;2024-03-08T18:59:49;22.83;;;12.90;;
15526;SDS011;7865;50.918;4.510;2024-03-08T19:04:51;21.53;;;13.60;;
15526;SDS011;7865;50.918;4.510;2024-03-08T19:09:56;21.73;;;12.90;;
15526;SDS011;7865;50.918;4.510;2024-03-08T19:14:58;18.17;;;12.83;;
15526;SDS011;7865;50.918;4.510;2024-03-08T19:19:59;21.17;;;13.03;;
15526;SDS011;7865;50.918;4.510;2024-03-08T19:25:01;20.97;;;12.63;;
15526;SDS011;7865;50.918;4.510;2024-03-08T19:30:04;24.17;;;13.20;;
15526;SDS011;7865;50.918;4.510;2024-03-08T19:35:06;20.83;;;12.80;;
15526;SDS011;7865;50.918;4.510;2024-03-08T19:40:18;23.47;;;14.37;;
15526;SDS011;7865;50.918;4.510;2024-03-08T19:45:23;23.43;;;13.53;;
15526;SDS011;7865;50.918;4.510;2024-03-08T19:50:29;21.63;;;13.53;;
15526;SDS011;7865;50.918;4.510;2024-03-08T19:55:36;20.47;;;13.37;;
15526;SDS011;7865;50.918;4.510;2024-03-08T20:00:40;22.30;;;14.33;;
15526;SDS011;7865;50.918;4.510;2024-03-08T20:05:41;20.07;;;13.27;;
15526;SDS011;7865;50.918;4.510;2024-03-08T20:10:45;21.30;;;13.60;;
15526;SDS011;7865;50.918;4.510;2024-03-08T20:15:52;21.70;;;13.20;;
15526;SDS011;7865;50.918;4.510;2024-03-08T20:20:56;23.97;;;14.73;;
15526;SDS011;7865;50.918;4.510;2024-03-08T20:25:58;20.80;;;14.20;;
15526;SDS011;7865;50.918;4.510;2024-03-08T20:31:01;23.03;;;14.30;;
15526;SDS011;7865;50.918;4.510;2024-03-08T20:36:03;22.27;;;14.73;;
15526;SDS011;7865;50.918;4.510;2024-03-08T20:41:07;20.33;;;13.97;;
15526;SDS011;7865;50.918;4.510;2024-03-08T20:46:11;22.97;;;14.53;;
15526;SDS011;7865;50.918;4.510;2024-03-08T20:51:18;20.83;;;13.57;;
15526;SDS011;7865;50.918;4.510;2024-03-08T20:56:20;23.20;;;14.83;;
15526;SDS011;7865;50.918;4.510;2024-03-08T21:01:21;20.23;;;14.43;;
15526;SDS011;7865;50.918;4.510;2024-03-08T21:06:28;21.47;;;14.37;;
15526;SDS011;7865;50.918;4.510;2024-03-08T21:11:30;21.47;;;15.17;;
15526;SDS011;7865;50.918;4.510;2024-03-08T21:16:32;23.47;;;14.60;;
15526;SDS011;7865;50.918;4.510;2024-03-08T21:21:33;22.57;;;14.70;;
15526;SDS011;7865;50.918;4.510;2024-03-08T21:26:34;23.00;;;14.43;;
15526;SDS011;7865;50.918;4.510;2024-03-08T21:31:37;21.33;;;14.23;;
15526;SDS011;7865;50.918;4.510;2024-03-08T21:36:38;23.93;;;13.50;;
15526;SDS011;7865;50.918;4.510;2024-03-08T21:41:39;23.30;;;15.53;;
15526;SDS011;7865;50.918;4.510;2024-03-08T21:46:42;23.10;;;15.37;;
15526;SDS011;7865;50.918;4.510;2024-03-08T21:51:45;25.57;;;15.00;;
15526;SDS011;7865;50.918;4.510;2024-03-08T21:56:51;24.00;;;15.57;;
15526;SDS011;7865;50.918;4.510;2024-03-08T22:01:53;22.53;;;15.17;;
15526;SDS011;7865;50.918;4.510;2024-03-08T22:06:54;25.30;;;16.33;;
15526;SDS011;7865;50.918;4.510;2024-03-08T22:35:09;24.87;;;16.07;;
15526;SDS011;7865;50.918;4.510;2024-03-08T22:57:54;25.63;;;15.73;;
15526;SDS011;7865;50.918;4.510;2024-03-08T23:26:47;25.70;;;16.93;;
15526;SDS011;7865;50.918;4.510;2024-03-08T23:31:48;24.93;;;16.83;;
15526;SDS011;7865;50.918;4.510;2024-03-08T23:36:49;28.00;;;17.00;;
15526;SDS011;7865;50.918;4.510;2024-03-08T23:41:51;24.83;;;16.70;;
15526;SDS011;7865;50.918;4.510;2024-03-08T23:46:52;25.67;;;16.93;;
15526;SDS011;7865;50.918;4.510;2024-03-08T23:51:53;27.53;;;17.90;;
15526;SDS011;7865;50.918;4.510;2024-03-08T23:56:54;26.27;;;16.77;;
